sensor_id;sensor_type;location;lat;lon;timestamp;pressure;altitude;pressure_sealevel;temperature;humidity
38033;BME280;23841;48.524;1.342;2023-05-01T00:00:41;99392.91;;;17.17;53.99
38033;BME280;23841;48.524;1.342;2023-05-01T00:03:06;99396.41;;;17.19;53.67
38033;BME280;23841;48.524;1.342;2023-05-01T00:05:32;99398.28;;;17.17;53.65
38033;BME280;23841;48.524;1.342;2023-05-01T00:07:57;99393.84;;;17.16;53.45
38033;BME280;23841;48.524;1.342;2023-05-01T00:10:23;99400.19;;;17.15;53.54
38033;BME280;23841;48.524;1.342;2023-05-01T00:12:48;99391.19;;;17.16;53.39
38033;BME280;23841;48.524;1.342;2023-05-01T00:15:14;99394.81;;;17.15;53.47
38033;BME280;23841;48.524;1.342;2023-05-01T00:17:39;99390.38;;;17.14;53.58
38033;BME280;23841;48.524;1.342;2023-05-01T00:20:05;99390.38;;;17.14;53.45
38033;BME280;23841;48.524;1.342;2023-05-01T00:22:31;99391.31;;;17.13;53.47
38033;BME280;23841;48.524;1.342;2023-05-01T00:24:56;99384.22;;;17.12;53.60
38033;BME280;23841;48.524;1.342;2023-05-01T00:27:22;99378.84;;;17.12;53.62
38033;BME280;23841;48.524;1.342;2023-05-01T00:29:47;99386.91;;;17.12;53.91
38033;BME280;23841;48.524;1.342;2023-05-01T00:32:13;99376.31;;;17.09;53.79
38033;BME280;23841;48.524;1.342;2023-05-01T00:34:39;99364.78;;;17.06;53.66
38033;BME280;23841;48.524;1.342;2023-05-01T00:37:05;99379.88;;;17.09;53.78
38033;BME280;23841;48.524;1.342;2023-05-01T00:39:31;99362.88;;;17.09;53.77
38033;BME280;23841;48.524;1.342;2023-05-01T00:41:56;99370.09;;;17.08;53.95
38033;BME280;23841;48.524;1.342;2023-05-01T00:44:22;99361.13;;;17.08;53.76
38033;BME280;23841;48.524;1.342;2023-05-01T00:46:48;99360.28;;;17.07;53.73
38033;BME280;23841;48.524;1.342;2023-05-01T00:49:14;99363.91;;;17.06;53.68
38033;BME280;23841;48.524;1.342;2023-05-01T00:51:40;99357.69;;;17.05;53.79
38033;BME280;23841;48.524;1.342;2023-05-01T00:54:06;99358.63;;;17.04;53.82
38033;BME280;23841;48.524;1.342;2023-05-01T00:56:32;99355.06;;;17.04;53.46
38033;BME280;23841;48.524;1.342;2023-05-01T00:58:58;99356.88;;;17.03;53.49
38033;BME280;23841;48.524;1.342;2023-05-01T01:01:23;99353.41;;;17.01;53.62
38033;BME280;23841;48.524;1.342;2023-05-01T01:03:49;99352.47;;;17.02;53.42
38033;BME280;23841;48.524;1.342;2023-05-01T01:06:46;99352.53;;;17.01;53.47
38033;BME280;23841;48.524;1.342;2023-05-01T01:09:41;99348.03;;;17.01;53.69
38033;BME280;23841;48.524;1.342;2023-05-01T01:12:15;99344.47;;;17.01;53.73
38033;BME280;23841;48.524;1.342;2023-05-01T01:18:08;99341.88;;;16.99;53.71
38033;BME280;23841;48.524;1.342;2023-05-01T01:32:17;99339.31;;;16.96;53.49
38033;BME280;23841;48.524;1.342;2023-05-01T01:34:50;99327.81;;;16.94;53.42
38033;BME280;23841;48.524;1.342;2023-05-01T01:37:21;99327.81;;;16.94;53.74
38033;BME280;23841;48.524;1.342;2023-05-01T01:40:09;99328.81;;;16.92;53.43
38033;BME280;23841;48.524;1.342;2023-05-01T01:42:42;99326.22;;;16.90;53.64
38033;BME280;23841;48.524;1.342;2023-05-01T01:45:17;99328.81;;;16.92;53.53
38033;BME280;23841;48.524;1.342;2023-05-01T01:47:46;99332.44;;;16.91;53.67
38033;BME280;23841;48.524;1.342;2023-05-01T01:50:15;99322.69;;;16.88;53.77
38033;BME280;23841;48.524;1.342;2023-05-01T01:52:44;99327.13;;;16.89;53.63
38033;BME280;23841;48.524;1.342;2023-05-01T01:55:12;99325.34;;;16.88;53.60
38033;BME280;23841;48.524;1.342;2023-05-01T01:57:40;99324.47;;;16.89;53.54
38033;BME280;23841;48.524;1.342;2023-05-01T02:00:09;99338.78;;;16.88;53.52
38033;BME280;23841;48.524;1.342;2023-05-01T02:02:39;99330.81;;;16.86;53.62
38033;BME280;23841;48.524;1.342;2023-05-01T02:05:10;99324.72;;;16.83;53.67
38033;BME280;23841;48.524;1.342;2023-05-01T02:07:38;99329.94;;;16.86;53.90
38033;BME280;23841;48.524;1.342;2023-05-01T02:10:05;99323.75;;;16.84;53.59
38033;BME280;23841;48.524;1.342;2023-05-01T02:12:33;99326.59;;;16.81;53.41
38033;BME280;23841;48.524;1.342;2023-05-01T02:14:59;99332.69;;;16.84;53.52
38033;BME280;23841;48.524;1.342;2023-05-01T02:17:27;99322.03;;;16.83;53.32
38033;BME280;23841;48.524;1.342;2023-05-01T02:19:54;99320.22;;;16.83;53.41
38033;BME280;23841;48.524;1.342;2023-05-01T02:22:21;99308.19;;;16.73;53.28
38033;BME280;23841;48.524;1.342;2023-05-01T02:24:48;99322.25;;;16.78;53.38
38033;BME280;23841;48.524;1.342;2023-05-01T02:27:25;99323.13;;;16.79;53.29
38033;BME280;23841;48.524;1.342;2023-05-01T02:29:55;99321.38;;;16.78;53.42
38033;BME280;23841;48.524;1.342;2023-05-01T02:32:20;99322.25;;;16.78;53.29
38033;BME280;23841;48.524;1.342;2023-05-01T02:34:46;99322.25;;;16.78;53.28
38033;BME280;23841;48.524;1.342;2023-05-01T02:37:12;99321.31;;;16.79;52.98
38033;BME280;23841;48.524;1.342;2023-05-01T02:39:38;99317.88;;;16.76;52.95
38033;BME280;23841;48.524;1.342;2023-05-01T02:42:05;99312.53;;;16.76;52.90
38033;BME280;23841;48.524;1.342;2023-05-01T02:44:47;99321.53;;;16.75;52.85
38033;BME280;23841;48.524;1.342;2023-05-01T02:47:18;99330.44;;;16.75;52.83
38033;BME280;23841;48.524;1.342;2023-05-01T02:49:45;99319.78;;;16.73;52.82
38033;BME280;23841;48.524;1.342;2023-05-01T02:52:13;99326.09;;;16.72;52.63
38033;BME280;23841;48.524;1.342;2023-05-01T02:54:38;99321.69;;;16.71;52.70
38033;BME280;23841;48.524;1.342;2023-05-01T02:57:04;99330.66;;;16.70;52.52
38033;BME280;23841;48.524;1.342;2023-05-01T02:59:30;99324.72;;;16.64;52.51
38033;BME280;23841;48.524;1.342;2023-05-01T03:01:56;99318.50;;;16.63;52.62
38033;BME280;23841;48.524;1.342;2023-05-01T03:04:22;99322.78;;;16.67;52.48
38033;BME280;23841;48.524;1.342;2023-05-01T03:06:47;99315.66;;;16.66;52.44
38033;BME280;23841;48.524;1.342;2023-05-01T03:09:13;99316.59;;;16.65;52.43
38033;BME280;23841;48.524;1.342;2023-05-01T03:11:38;99316.59;;;16.65;52.30
38033;BME280;23841;48.524;1.342;2023-05-01T03:14:03;99313.13;;;16.63;52.40
38033;BME280;23841;48.524;1.342;2023-05-01T03:16:29;99317.59;;;16.63;52.42
38033;BME280;23841;48.524;1.342;2023-05-01T03:18:55;99317.66;;;16.61;52.39
38033;BME280;23841;48.524;1.342;2023-05-01T03:21:20;99322.25;;;16.59;52.38
38033;BME280;23841;48.524;1.342;2023-05-01T03:23:45;99316.97;;;16.58;52.41
38033;BME280;23841;48.524;1.342;2023-05-01T03:26:11;99319.69;;;16.56;52.34
38033;BME280;23841;48.524;1.342;2023-05-01T03:28:36;99322.38;;;16.56;52.29
38033;BME280;23841;48.524;1.342;2023-05-01T03:31:02;99317.06;;;16.54;52.48
38033;BME280;23841;48.524;1.342;2023-05-01T03:33:27;99307.34;;;16.52;52.45
38033;BME280;23841;48.524;1.342;2023-05-01T03:36:02;99303.22;;;16.45;52.32
38033;BME280;23841;48.524;1.342;2023-05-01T03:38:31;99311.94;;;16.50;52.36
38033;BME280;23841;48.524;1.342;2023-05-01T03:40:58;99311.06;;;16.49;52.40
38033;BME280;23841;48.524;1.342;2023-05-01T03:43:24;99313.84;;;16.48;52.38
38033;BME280;23841;48.524;1.342;2023-05-01T03:45:50;99306.72;;;16.47;52.37
38033;BME280;23841;48.524;1.342;2023-05-01T03:48:17;99304.97;;;16.46;52.32
38033;BME280;23841;48.524;1.342;2023-05-01T03:50:43;99306.78;;;16.45;52.34
38033;BME280;23841;48.524;1.342;2023-05-01T03:53:08;99299.75;;;16.43;52.36
38033;BME280;23841;48.524;1.342;2023-05-01T03:55:34;99305.13;;;16.43;52.42
38033;BME280;23841;48.524;1.342;2023-05-01T03:57:59;99314.16;;;16.40;52.44
38033;BME280;23841;48.524;1.342;2023-05-01T04:00:25;99308.00;;;16.38;52.43
38033;BME280;23841;48.524;1.342;2023-05-01T04:02:51;99317.00;;;16.37;52.44
38033;BME280;23841;48.524;1.342;2023-05-01T04:05:16;99313.50;;;16.35;52.47
38033;BME280;23841;48.524;1.342;2023-05-01T04:07:42;99311.97;;;16.29;52.54
38033;BME280;23841;48.524;1.342;2023-05-01T04:10:08;99316.25;;;16.33;52.50
38033;BME280;23841;48.524;1.342;2023-05-01T04:12:34;99319.88;;;16.32;52.50
38033;BME280;23841;48.524;1.342;2023-05-01T04:14:59;99316.31;;;16.32;52.45
38033;BME280;23841;48.524;1.342;2023-05-01T04:17:25;99303.06;;;16.29;52.43
38033;BME280;23841;48.524;1.342;2023-05-01T04:19:51;99313.78;;;16.29;52.60
38033;BME280;23841;48.524;1.342;2023-05-01T04:22:17;99310.19;;;16.30;52.63
38033;BME280;23841;48.524;1.342;2023-05-01T04:24:43;99315.56;;;16.28;52.56
38033;BME280;23841;48.524;1.342;2023-05-01T04:27:09;99317.47;;;16.26;52.56
38033;BME280;23841;48.524;1.342;2023-05-01T04:29:35;99323.75;;;16.25;52.49
38033;BME280;23841;48.524;1.342;2023-05-01T04:32:00;99307.91;;;16.20;52.63
38033;BME280;23841;48.524;1.342;2023-05-01T04:34:26;99323.06;;;16.21;52.63
38033;BME280;23841;48.524;1.342;2023-05-01T04:36:54;99327.50;;;16.21;52.68
38033;BME280;23841;48.524;1.342;2023-05-01T04:39:21;99332.03;;;16.20;52.74
38033;BME280;23841;48.524;1.342;2023-05-01T04:41:47;99336.53;;;16.20;52.80
38033;BME280;23841;48.524;1.342;2023-05-01T04:44:12;99335.69;;;16.18;52.67
38033;BME280;23841;48.524;1.342;2023-05-01T04:46:37;99335.78;;;16.16;52.86
38033;BME280;23841;48.524;1.342;2023-05-01T04:49:03;99336.63;;;16.17;52.78
38033;BME280;23841;48.524;1.342;2023-05-01T04:51:28;99333.03;;;16.18;52.84
38033;BME280;23841;48.524;1.342;2023-05-01T04:53:53;99339.31;;;16.17;52.86
38033;BME280;23841;48.524;1.342;2023-05-01T04:56:20;99339.38;;;16.15;52.83
38033;BME280;23841;48.524;1.342;2023-05-01T04:58:45;99340.28;;;16.16;53.16
38033;BME280;23841;48.524;1.342;2023-05-01T05:01:11;99345.63;;;16.16;52.97
38033;BME280;23841;48.524;1.342;2023-05-01T05:03:36;99345.63;;;16.16;52.99
38033;BME280;23841;48.524;1.342;2023-05-01T05:06:02;99340.38;;;16.13;53.10
38033;BME280;23841;48.524;1.342;2023-05-01T05:08:28;99333.25;;;16.13;53.11
38033;BME280;23841;48.524;1.342;2023-05-01T05:10:57;99327.13;;;16.10;53.05
38033;BME280;23841;48.524;1.342;2023-05-01T05:13:24;99330.56;;;16.13;53.10
38033;BME280;23841;48.524;1.342;2023-05-01T05:15:49;99335.03;;;16.13;53.22
38033;BME280;23841;48.524;1.342;2023-05-01T05:18:15;99348.44;;;16.13;53.27
38033;BME280;23841;48.524;1.342;2023-05-01T05:20:40;99348.50;;;16.11;53.22
38033;BME280;23841;48.524;1.342;2023-05-01T05:23:05;99341.34;;;16.12;53.32
38033;BME280;23841;48.524;1.342;2023-05-01T05:25:31;99341.38;;;16.10;53.37
38033;BME280;23841;48.524;1.342;2023-05-01T05:27:57;99341.38;;;16.10;53.45
38033;BME280;23841;48.524;1.342;2023-05-01T05:30:23;99350.31;;;16.11;53.41
38033;BME280;23841;48.524;1.342;2023-05-01T05:32:49;99349.50;;;16.09;53.48
38033;BME280;23841;48.524;1.342;2023-05-01T05:35:14;99345.16;;;16.06;53.42
38033;BME280;23841;48.524;1.342;2023-05-01T05:37:40;99342.41;;;16.08;53.58
38033;BME280;23841;48.524;1.342;2023-05-01T05:40:06;99342.66;;;16.01;53.61
38033;BME280;23841;48.524;1.342;2023-05-01T05:42:31;99352.38;;;16.04;53.60
38033;BME280;23841;48.524;1.342;2023-05-01T05:44:58;99353.31;;;16.03;53.73
38033;BME280;23841;48.524;1.342;2023-05-01T05:47:23;99349.78;;;16.02;53.75
38033;BME280;23841;48.524;1.342;2023-05-01T05:49:48;99354.28;;;16.02;53.75
38033;BME280;23841;48.524;1.342;2023-05-01T05:52:14;99355.13;;;16.02;53.67
38033;BME280;23841;48.524;1.342;2023-05-01T05:54:39;99344.41;;;16.02;53.77
38033;BME280;23841;48.524;1.342;2023-05-01T05:57:05;99356.88;;;16.03;53.75
38033;BME280;23841;48.524;1.342;2023-05-01T05:59:30;99352.47;;;16.02;53.83
38033;BME280;23841;48.524;1.342;2023-05-01T06:01:56;99355.13;;;16.02;53.91
38033;BME280;23841;48.524;1.342;2023-05-01T06:04:23;99354.28;;;16.02;53.88
38033;BME280;23841;48.524;1.342;2023-05-01T06:06:48;99361.56;;;15.98;54.10
38033;BME280;23841;48.524;1.342;2023-05-01T06:09:14;99354.44;;;15.97;54.12
38033;BME280;23841;48.524;1.342;2023-05-01T06:11:41;99361.63;;;15.97;54.31
38033;BME280;23841;48.524;1.342;2023-05-01T06:14:06;99362.63;;;15.94;54.28
38033;BME280;23841;48.524;1.342;2023-05-01T06:16:32;99362.50;;;15.97;54.23
38033;BME280;23841;48.524;1.342;2023-05-01T06:18:58;99366.09;;;15.96;54.32
38033;BME280;23841;48.524;1.342;2023-05-01T06:21:24;99366.91;;;15.98;54.19
38033;BME280;23841;48.524;1.342;2023-05-01T06:23:49;99369.59;;;15.98;54.19
38033;BME280;23841;48.524;1.342;2023-05-01T06:26:15;99370.53;;;15.97;54.22
38033;BME280;23841;48.524;1.342;2023-05-01T06:28:40;99369.59;;;15.98;54.18
38033;BME280;23841;48.524;1.342;2023-05-01T06:31:05;99359.16;;;15.92;54.26
38033;BME280;23841;48.524;1.342;2023-05-01T06:33:31;99361.63;;;15.97;54.27
38033;BME280;23841;48.524;1.342;2023-05-01T06:35:56;99360.75;;;15.96;54.34
38033;BME280;23841;48.524;1.342;2023-05-01T06:38:25;99369.72;;;15.95;54.46
38033;BME280;23841;48.524;1.342;2023-05-01T06:40:51;99369.72;;;15.95;54.50
38033;BME280;23841;48.524;1.342;2023-05-01T06:43:16;99370.59;;;15.96;54.64
38033;BME280;23841;48.524;1.342;2023-05-01T06:45:42;99371.44;;;15.96;54.53
38033;BME280;23841;48.524;1.342;2023-05-01T06:48:07;99363.69;;;15.90;54.52
38033;BME280;23841;48.524;1.342;2023-05-01T06:50:32;99366.22;;;15.93;54.64
38033;BME280;23841;48.524;1.342;2023-05-01T06:52:58;99370.59;;;15.96;54.68
38033;BME280;23841;48.524;1.342;2023-05-01T06:55:26;99366.09;;;15.96;54.75
38033;BME280;23841;48.524;1.342;2023-05-01T06:57:55;99369.72;;;15.95;54.80
38033;BME280;23841;48.524;1.342;2023-05-01T07:00:21;99368.84;;;15.95;54.75
38033;BME280;23841;48.524;1.342;2023-05-01T07:02:47;99379.56;;;15.95;54.82
38033;BME280;23841;48.524;1.342;2023-05-01T07:05:12;99375.94;;;15.96;54.78
38033;BME280;23841;48.524;1.342;2023-05-01T07:07:38;99380.44;;;15.95;54.94
38033;BME280;23841;48.524;1.342;2023-05-01T07:10:04;99382.16;;;15.96;54.90
38033;BME280;23841;48.524;1.342;2023-05-01T07:12:29;99386.75;;;15.94;55.00
38033;BME280;23841;48.524;1.342;2023-05-01T07:14:55;99384.97;;;15.93;54.98
38033;BME280;23841;48.524;1.342;2023-05-01T07:17:21;99389.34;;;15.96;55.02
38033;BME280;23841;48.524;1.342;2023-05-01T07:19:46;99381.38;;;15.94;54.98
38033;BME280;23841;48.524;1.342;2023-05-01T07:22:12;99384.19;;;15.91;55.14
38033;BME280;23841;48.524;1.342;2023-05-01T07:24:37;99385.81;;;15.95;55.11
38033;BME280;23841;48.524;1.342;2023-05-01T07:27:03;99379.63;;;15.93;55.22
38033;BME280;23841;48.524;1.342;2023-05-01T07:29:28;99388.50;;;15.95;55.21
38033;BME280;23841;48.524;1.342;2023-05-01T07:31:54;99394.78;;;15.94;55.27
38033;BME280;23841;48.524;1.342;2023-05-01T07:34:19;99380.53;;;15.94;55.41
38033;BME280;23841;48.524;1.342;2023-05-01T07:36:45;99376.94;;;15.93;55.50
38033;BME280;23841;48.524;1.342;2023-05-01T07:39:10;99377.03;;;15.92;55.49
38033;BME280;23841;48.524;1.342;2023-05-01T07:41:36;99379.56;;;15.95;55.59
38033;BME280;23841;48.524;1.342;2023-05-01T07:44:01;99368.97;;;15.92;55.61
38033;BME280;23841;48.524;1.342;2023-05-01T07:46:28;99377.84;;;15.94;55.68
38033;BME280;23841;48.524;1.342;2023-05-01T07:48:58;99368.13;;;15.91;55.74
38033;BME280;23841;48.524;1.342;2023-05-01T07:51:28;99383.19;;;15.94;56.04
38033;BME280;23841;48.524;1.342;2023-05-01T07:53:56;99376.88;;;15.95;55.90
38033;BME280;23841;48.524;1.342;2023-05-01T07:56:24;99379.75;;;15.90;56.01
38033;BME280;23841;48.524;1.342;2023-05-01T07:59:01;99388.56;;;15.94;56.16
38033;BME280;23841;48.524;1.342;2023-05-01T08:01:28;99387.72;;;15.92;56.10
38033;BME280;23841;48.524;1.342;2023-05-01T08:03:58;99380.59;;;15.92;56.33
38033;BME280;23841;48.524;1.342;2023-05-01T08:06:24;99384.19;;;15.91;56.46
38033;BME280;23841;48.524;1.342;2023-05-01T08:08:49;99385.13;;;15.90;57.04
38033;BME280;23841;48.524;1.342;2023-05-01T08:11:15;99389.56;;;15.91;56.70
38033;BME280;23841;48.524;1.342;2023-05-01T08:13:40;99391.31;;;15.92;56.33
38033;BME280;23841;48.524;1.342;2023-05-01T08:16:06;99395.78;;;15.92;56.40
38033;BME280;23841;48.524;1.342;2023-05-01T08:18:31;99394.03;;;15.91;56.42
38033;BME280;23841;48.524;1.342;2023-05-01T08:20:57;99401.13;;;15.92;56.52
38033;BME280;23841;48.524;1.342;2023-05-01T08:23:22;99394.03;;;15.91;56.27
38033;BME280;23841;48.524;1.342;2023-05-01T08:25:50;99406.47;;;15.92;56.52
38033;BME280;23841;48.524;1.342;2023-05-01T08:28:17;99399.38;;;15.91;56.36
38033;BME280;23841;48.524;1.342;2023-05-01T08:30:45;99400.34;;;15.90;56.46
38033;BME280;23841;48.524;1.342;2023-05-01T08:33:10;99399.28;;;15.94;56.50
38033;BME280;23841;48.524;1.342;2023-05-01T08:35:41;99399.34;;;15.92;56.47
38033;BME280;23841;48.524;1.342;2023-05-01T08:38:14;99395.78;;;15.92;56.59
38033;BME280;23841;48.524;1.342;2023-05-01T08:40:47;99398.53;;;15.90;56.52
38033;BME280;23841;48.524;1.342;2023-05-01T08:43:16;99404.72;;;15.91;56.72
38033;BME280;23841;48.524;1.342;2023-05-01T08:45:42;99402.94;;;15.91;56.63
38033;BME280;23841;48.524;1.342;2023-05-01T08:48:09;99413.53;;;15.94;56.60
38033;BME280;23841;48.524;1.342;2023-05-01T08:50:35;99412.75;;;15.92;56.73
38033;BME280;23841;48.524;1.342;2023-05-01T08:53:04;99420.78;;;15.92;56.52
38033;BME280;23841;48.524;1.342;2023-05-01T08:55:30;99417.13;;;15.93;56.96
38033;BME280;23841;48.524;1.342;2023-05-01T08:58:00;99419.94;;;15.90;57.00
38033;BME280;23841;48.524;1.342;2023-05-01T09:00:27;99420.78;;;15.92;56.83
38033;BME280;23841;48.524;1.342;2023-05-01T09:02:53;99415.44;;;15.91;57.08
38033;BME280;23841;48.524;1.342;2023-05-01T09:05:20;99407.47;;;15.89;56.84
38033;BME280;23841;48.524;1.342;2023-05-01T09:07:46;99421.56;;;15.94;56.94
38033;BME280;23841;48.524;1.342;2023-05-01T09:10:12;99417.97;;;15.95;56.98
38033;BME280;23841;48.524;1.342;2023-05-01T09:12:40;99415.28;;;15.95;56.88
38033;BME280;23841;48.524;1.342;2023-05-01T09:15:06;99419.75;;;15.95;57.08
38033;BME280;23841;48.524;1.342;2023-05-01T09:17:32;99425.94;;;15.97;56.92
38033;BME280;23841;48.524;1.342;2023-05-01T09:20:00;99421.50;;;15.96;56.87
38033;BME280;23841;48.524;1.342;2023-05-01T09:22:26;99415.22;;;15.97;56.80
38033;BME280;23841;48.524;1.342;2023-05-01T09:24:54;99423.19;;;15.98;57.05
38033;BME280;23841;48.524;1.342;2023-05-01T09:27:20;99423.19;;;15.98;56.72
38033;BME280;23841;48.524;1.342;2023-05-01T09:29:47;99422.25;;;15.99;56.61
38033;BME280;23841;48.524;1.342;2023-05-01T09:34:39;99408.84;;;15.99;56.77
38033;BME280;23841;48.524;1.342;2023-05-01T09:37:05;99421.19;;;16.03;57.01
38033;BME280;23841;48.524;1.342;2023-05-01T09:39:31;99410.56;;;16.00;57.46
38033;BME280;23841;48.524;1.342;2023-05-01T09:41:58;99413.09;;;16.05;57.68
38033;BME280;23841;48.524;1.342;2023-05-01T09:44:23;99414.88;;;16.04;57.64
38033;BME280;23841;48.524;1.342;2023-05-01T09:46:49;99413.94;;;16.06;58.07
38033;BME280;23841;48.524;1.342;2023-05-01T09:49:15;99420.19;;;16.06;58.35
38033;BME280;23841;48.524;1.342;2023-05-01T09:51:40;99414.75;;;16.08;58.44
38033;BME280;23841;48.524;1.342;2023-05-01T09:54:17;99406.72;;;16.08;58.63
38033;BME280;23841;48.524;1.342;2023-05-01T09:56:47;99419.16;;;16.09;58.39
38033;BME280;23841;48.524;1.342;2023-05-01T09:59:18;99409.34;;;16.09;58.54
38033;BME280;23841;48.524;1.342;2023-05-01T10:01:46;99423.53;;;16.11;58.67
38033;BME280;23841;48.524;1.342;2023-05-01T10:04:16;99406.97;;;16.01;58.67
38033;BME280;23841;48.524;1.342;2023-05-01T10:06:42;99426.13;;;16.13;58.35
38033;BME280;23841;48.524;1.342;2023-05-01T10:09:07;99421.78;;;16.10;58.49
38033;BME280;23841;48.524;1.342;2023-05-01T10:14:12;99443.03;;;16.15;58.89
38033;BME280;23841;48.524;1.342;2023-05-01T10:16:38;99444.72;;;16.17;59.62
38033;BME280;23841;48.524;1.342;2023-05-01T10:19:04;99435.06;;;16.13;59.50
38033;BME280;23841;48.524;1.342;2023-05-01T10:21:30;99439.28;;;16.19;59.32
38033;BME280;23841;48.524;1.342;2023-05-01T10:24:00;99434.00;;;16.17;59.17
38033;BME280;23841;48.524;1.342;2023-05-01T10:26:32;99427.66;;;16.20;59.31
38033;BME280;23841;48.524;1.342;2023-05-01T10:28:59;99430.31;;;16.20;59.01
38033;BME280;23841;48.524;1.342;2023-05-01T10:31:26;99432.03;;;16.21;58.94
38033;BME280;23841;48.524;1.342;2023-05-01T10:33:53;99429.38;;;16.21;58.87
38033;BME280;23841;48.524;1.342;2023-05-01T10:36:24;99430.19;;;16.23;59.01
38033;BME280;23841;48.524;1.342;2023-05-01T10:38:50;99428.38;;;16.24;59.25
38033;BME280;23841;48.524;1.342;2023-05-01T10:41:16;99428.38;;;16.24;59.61
38033;BME280;23841;48.524;1.342;2023-05-01T10:44:21;99430.97;;;16.25;59.79
38033;BME280;23841;48.524;1.342;2023-05-01T10:46:47;99433.59;;;16.27;59.86
38033;BME280;23841;48.524;1.342;2023-05-01T10:49:12;99430.03;;;16.26;59.91
38033;BME280;23841;48.524;1.342;2023-05-01T10:54:23;99434.34;;;16.30;59.93
38033;BME280;23841;48.524;1.342;2023-05-01T10:56:49;99436.09;;;16.31;60.73
38033;BME280;23841;48.524;1.342;2023-05-01T10:59:15;99440.38;;;16.35;62.02
38033;BME280;23841;48.524;1.342;2023-05-01T11:01:41;99432.34;;;16.35;62.17
38033;BME280;23841;48.524;1.342;2023-05-01T11:15:09;99444.53;;;16.43;64.28
38033;BME280;23841;48.524;1.342;2023-05-01T11:20:04;99438.88;;;16.49;64.41
38033;BME280;23841;48.524;1.342;2023-05-01T11:22:31;99436.34;;;16.46;64.32
38033;BME280;23841;48.524;1.342;2023-05-01T11:24:57;99447.91;;;16.48;64.21
38033;BME280;23841;48.524;1.342;2023-05-01T11:27:23;99446.00;;;16.50;63.63
38033;BME280;23841;48.524;1.342;2023-05-01T11:29:49;99442.47;;;16.49;63.00
38033;BME280;23841;48.524;1.342;2023-05-01T11:32:21;99442.38;;;16.51;63.33
38033;BME280;23841;48.524;1.342;2023-05-01T11:34:48;99442.31;;;16.52;62.75
38033;BME280;23841;48.524;1.342;2023-05-01T11:37:15;99436.03;;;16.53;63.03
38033;BME280;23841;48.524;1.342;2023-05-01T11:39:50;99442.25;;;16.54;62.65
38033;BME280;23841;48.524;1.342;2023-05-01T11:42:19;99432.44;;;16.53;62.71
38033;BME280;23841;48.524;1.342;2023-05-01T11:45:08;99437.81;;;16.53;62.08
38033;BME280;23841;48.524;1.342;2023-05-01T11:47:37;99436.88;;;16.54;62.06
38033;BME280;23841;48.524;1.342;2023-05-01T11:50:06;99434.22;;;16.54;61.95
38033;BME280;23841;48.524;1.342;2023-05-01T11:52:45;99438.63;;;16.55;61.89
38033;BME280;23841;48.524;1.342;2023-05-01T11:55:13;99424.41;;;16.53;61.79
38033;BME280;23841;48.524;1.342;2023-05-01T11:57:46;99435.88;;;16.57;61.70
38033;BME280;23841;48.524;1.342;2023-05-01T12:00:14;99431.38;;;16.57;62.54
38033;BME280;23841;48.524;1.342;2023-05-01T12:02:53;99435.44;;;16.66;62.97
38033;BME280;23841;48.524;1.342;2023-05-01T12:05:20;99431.50;;;16.75;63.19
38033;BME280;23841;48.524;1.342;2023-05-01T12:07:47;99434.84;;;16.80;63.35
38033;BME280;23841;48.524;1.342;2023-05-01T12:10:13;99440.00;;;16.84;63.31
38033;BME280;23841;48.524;1.342;2023-05-01T12:12:40;99435.13;;;16.94;63.35
38033;BME280;23841;48.524;1.342;2023-05-01T12:15:06;99433.38;;;16.93;63.11
38033;BME280;23841;48.524;1.342;2023-05-01T12:17:31;99434.97;;;16.97;63.14
38033;BME280;23841;48.524;1.342;2023-05-01T12:19:57;99434.06;;;16.98;63.25
38033;BME280;23841;48.524;1.342;2023-05-01T12:22:24;99434.75;;;17.02;62.97
38033;BME280;23841;48.524;1.342;2023-05-01T12:24:50;99431.06;;;17.04;62.56
38033;BME280;23841;48.524;1.342;2023-05-01T12:27:19;99427.31;;;17.09;62.53
38033;BME280;23841;48.524;1.342;2023-05-01T12:29:44;99421.94;;;17.09;62.26
38033;BME280;23841;48.524;1.342;2023-05-01T12:32:13;99425.63;;;17.06;62.52
38033;BME280;23841;48.524;1.342;2023-05-01T12:34:39;99422.09;;;17.05;62.16
38033;BME280;23841;48.524;1.342;2023-05-01T12:37:06;99415.13;;;17.01;62.11
38033;BME280;23841;48.524;1.342;2023-05-01T12:39:41;99420.25;;;17.06;61.98
38033;BME280;23841;48.524;1.342;2023-05-01T12:42:13;99408.88;;;17.01;61.61
38033;BME280;23841;48.524;1.342;2023-05-01T12:44:38;99417.56;;;17.06;61.41
38033;BME280;23841;48.524;1.342;2023-05-01T12:47:05;99414.03;;;17.05;61.43
38033;BME280;23841;48.524;1.342;2023-05-01T12:49:33;99408.66;;;17.05;61.52
38033;BME280;23841;48.524;1.342;2023-05-01T12:52:03;99409.59;;;17.04;61.52
38033;BME280;23841;48.524;1.342;2023-05-01T12:54:38;99403.28;;;17.05;61.54
38033;BME280;23841;48.524;1.342;2023-05-01T12:57:15;99404.22;;;17.04;61.28
38033;BME280;23841;48.524;1.342;2023-05-01T12:59:42;99408.59;;;17.07;61.07
38033;BME280;23841;48.524;1.342;2023-05-01T13:02:09;99414.81;;;17.08;60.80
38033;BME280;23841;48.524;1.342;2023-05-01T13:04:36;99402.38;;;17.06;60.62
38033;BME280;23841;48.524;1.342;2023-05-01T13:07:10;99411.13;;;17.10;60.47
38033;BME280;23841;48.524;1.342;2023-05-01T13:09:35;99417.38;;;17.11;60.63
38033;BME280;23841;48.524;1.342;2023-05-01T13:12:03;99408.44;;;17.10;60.61
38033;BME280;23841;48.524;1.342;2023-05-01T13:14:37;99409.34;;;17.11;60.65
38033;BME280;23841;48.524;1.342;2023-05-01T13:17:08;99406.72;;;17.09;60.52
38033;BME280;23841;48.524;1.342;2023-05-01T13:19:34;99404.03;;;17.09;60.74
38033;BME280;23841;48.524;1.342;2023-05-01T13:22:00;99401.47;;;17.06;60.62
38033;BME280;23841;48.524;1.342;2023-05-01T13:24:39;99419.91;;;17.14;60.59
38033;BME280;23841;48.524;1.342;2023-05-01T13:27:09;99410.03;;;17.14;60.68
38033;BME280;23841;48.524;1.342;2023-05-01T13:29:35;99407.28;;;17.16;60.61
38033;BME280;23841;48.524;1.342;2023-05-01T13:32:05;99404.75;;;17.13;60.52
38033;BME280;23841;48.524;1.342;2023-05-01T13:34:32;99416.16;;;17.18;60.56
38033;BME280;23841;48.524;1.342;2023-05-01T13:37:00;99413.38;;;17.19;60.37